sensor_id;sensor_type;location;lat;lon;timestamp;P1;durP1;ratioP1;P2;durP2;ratioP2
14797;SDS011;7490;63.708;20.368;2024-02-14T00:02:11;3.00;;;2.27;;
14797;SDS011;7490;63.708;20.368;2024-02-14T00:04:37;3.15;;;2.35;;
14797;SDS011;7490;63.708;20.368;2024-02-14T00:07:03;2.53;;;2.20;;
14797;SDS011;7490;63.708;20.368;2024-02-14T00:09:29;2.50;;;2.00;;
14797;SDS011;7490;63.708;20.368;2024-02-14T00:11:56;3.58;;;1.90;;
14797;SDS011;7490;63.708;20.368;2024-02-14T00:14:22;3.53;;;2.63;;
14797;SDS011;7490;63.708;20.368;2024-02-14T00:16:47;2.53;;;2.30;;
14797;SDS011;7490;63.708;20.368;2024-02-14T00:19:13;3.07;;;2.77;;
14797;SDS011;7490;63.708;20.368;2024-02-14T00:21:39;4.10;;;2.50;;
14797;SDS011;7490;63.708;20.368;2024-02-14T00:24:04;3.47;;;2.53;;
14797;SDS011;7490;63.708;20.368;2024-02-14T00:26:31;2.90;;;2.50;;
14797;SDS011;7490;63.708;20.368;2024-02-14T00:28:56;2.37;;;2.17;;
14797;SDS011;7490;63.708;20.368;2024-02-14T00:31:22;2.67;;;2.43;;
14797;SDS011;7490;63.708;20.368;2024-02-14T00:33:48;3.57;;;2.40;;
14797;SDS011;7490;63.708;20.368;2024-02-14T00:36:14;3.47;;;2.80;;
14797;SDS011;7490;63.708;20.368;2024-02-14T00:38:40;3.40;;;2.70;;
14797;SDS011;7490;63.708;20.368;2024-02-14T00:41:05;3.00;;;2.10;;
14797;SDS011;7490;63.708;20.368;2024-02-14T00:43:31;2.33;;;2.13;;
14797;SDS011;7490;63.708;20.368;2024-02-14T00:45:57;2.70;;;2.20;;
14797;SDS011;7490;63.708;20.368;2024-02-14T00:48:23;3.00;;;2.08;;
14797;SDS011;7490;63.708;20.368;2024-02-14T00:50:49;3.10;;;2.40;;
14797;SDS011;7490;63.708;20.368;2024-02-14T00:53:14;3.67;;;2.53;;
14797;SDS011;7490;63.708;20.368;2024-02-14T00:55:40;2.47;;;2.23;;
14797;SDS011;7490;63.708;20.368;2024-02-14T00:58:06;3.43;;;2.27;;
14797;SDS011;7490;63.708;20.368;2024-02-14T01:00:32;3.00;;;2.60;;
14797;SDS011;7490;63.708;20.368;2024-02-14T01:02:58;3.77;;;2.27;;
14797;SDS011;7490;63.708;20.368;2024-02-14T01:05:24;2.90;;;2.60;;
14797;SDS011;7490;63.708;20.368;2024-02-14T01:07:49;4.13;;;2.83;;
14797;SDS011;7490;63.708;20.368;2024-02-14T01:10:16;3.40;;;2.30;;
14797;SDS011;7490;63.708;20.368;2024-02-14T01:12:43;2.53;;;2.13;;
14797;SDS011;7490;63.708;20.368;2024-02-14T01:15:09;2.67;;;2.30;;
14797;SDS011;7490;63.708;20.368;2024-02-14T01:17:35;2.97;;;2.40;;
14797;SDS011;7490;63.708;20.368;2024-02-14T01:20:01;4.23;;;2.33;;
14797;SDS011;7490;63.708;20.368;2024-02-14T01:22:27;2.50;;;2.30;;
14797;SDS011;7490;63.708;20.368;2024-02-14T01:24:53;2.47;;;2.30;;
14797;SDS011;7490;63.708;20.368;2024-02-14T01:27:19;2.75;;;2.50;;
14797;SDS011;7490;63.708;20.368;2024-02-14T01:29:47;3.70;;;2.28;;
14797;SDS011;7490;63.708;20.368;2024-02-14T01:32:14;4.45;;;2.47;;
14797;SDS011;7490;63.708;20.368;2024-02-14T01:34:39;3.57;;;2.20;;
14797;SDS011;7490;63.708;20.368;2024-02-14T01:37:07;2.45;;;2.22;;
14797;SDS011;7490;63.708;20.368;2024-02-14T01:39:35;2.67;;;2.47;;
14797;SDS011;7490;63.708;20.368;2024-02-14T01:42:00;4.03;;;2.50;;
14797;SDS011;7490;63.708;20.368;2024-02-14T01:44:30;1.70;;;1.60;;
14797;SDS011;7490;63.708;20.368;2024-02-14T01:46:56;4.03;;;2.30;;
14797;SDS011;7490;63.708;20.368;2024-02-14T01:49:22;3.50;;;2.37;;
14797;SDS011;7490;63.708;20.368;2024-02-14T01:51:47;3.40;;;2.17;;
14797;SDS011;7490;63.708;20.368;2024-02-14T01:54:14;4.50;;;2.60;;
14797;SDS011;7490;63.708;20.368;2024-02-14T01:56:40;3.63;;;2.63;;
14797;SDS011;7490;63.708;20.368;2024-02-14T01:59:07;3.83;;;2.55;;
14797;SDS011;7490;63.708;20.368;2024-02-14T02:01:34;2.65;;;2.45;;
14797;SDS011;7490;63.708;20.368;2024-02-14T02:04:00;3.17;;;2.40;;
14797;SDS011;7490;63.708;20.368;2024-02-14T02:06:26;3.47;;;2.15;;
14797;SDS011;7490;63.708;20.368;2024-02-14T02:08:53;3.75;;;2.40;;
14797;SDS011;7490;63.708;20.368;2024-02-14T02:11:19;2.30;;;2.10;;
14797;SDS011;7490;63.708;20.368;2024-02-14T02:13:45;3.28;;;2.28;;
14797;SDS011;7490;63.708;20.368;2024-02-14T02:16:11;2.50;;;2.10;;
14797;SDS011;7490;63.708;20.368;2024-02-14T02:18:37;3.30;;;2.55;;
14797;SDS011;7490;63.708;20.368;2024-02-14T02:21:03;3.90;;;2.53;;
14797;SDS011;7490;63.708;20.368;2024-02-14T02:23:32;2.70;;;2.50;;
14797;SDS011;7490;63.708;20.368;2024-02-14T02:25:58;2.95;;;2.30;;
14797;SDS011;7490;63.708;20.368;2024-02-14T02:28:25;2.60;;;2.10;;
14797;SDS011;7490;63.708;20.368;2024-02-14T02:30:51;2.60;;;2.40;;
14797;SDS011;7490;63.708;20.368;2024-02-14T02:33:18;2.83;;;2.33;;
14797;SDS011;7490;63.708;20.368;2024-02-14T02:35:44;4.73;;;2.93;;
14797;SDS011;7490;63.708;20.368;2024-02-14T02:38:10;2.43;;;1.73;;
14797;SDS011;7490;63.708;20.368;2024-02-14T02:40:37;1.90;;;1.70;;
14797;SDS011;7490;63.708;20.368;2024-02-14T02:43:02;2.63;;;2.43;;
14797;SDS011;7490;63.708;20.368;2024-02-14T02:45:28;2.50;;;2.20;;
14797;SDS011;7490;63.708;20.368;2024-02-14T02:47:54;3.43;;;2.37;;
14797;SDS011;7490;63.708;20.368;2024-02-14T02:50:21;3.47;;;2.20;;
14797;SDS011;7490;63.708;20.368;2024-02-14T02:52:47;2.67;;;2.45;;
14797;SDS011;7490;63.708;20.368;2024-02-14T02:55:13;2.37;;;2.17;;
14797;SDS011;7490;63.708;20.368;2024-02-14T02:57:42;2.72;;;2.40;;
14797;SDS011;7490;63.708;20.368;2024-02-14T03:00:08;3.67;;;2.67;;
14797;SDS011;7490;63.708;20.368;2024-02-14T03:02:36;2.85;;;2.08;;
14797;SDS011;7490;63.708;20.368;2024-02-14T03:05:07;3.75;;;2.45;;
14797;SDS011;7490;63.708;20.368;2024-02-14T03:07:35;2.38;;;2.17;;
14797;SDS011;7490;63.708;20.368;2024-02-14T03:10:02;2.97;;;2.67;;
14797;SDS011;7490;63.708;20.368;2024-02-14T03:12:28;2.42;;;2.22;;
14797;SDS011;7490;63.708;20.368;2024-02-14T03:14:56;2.20;;;2.00;;
14797;SDS011;7490;63.708;20.368;2024-02-14T03:17:25;2.58;;;2.28;;
14797;SDS011;7490;63.708;20.368;2024-02-14T03:19:51;4.20;;;2.87;;
14797;SDS011;7490;63.708;20.368;2024-02-14T03:22:17;2.87;;;2.07;;
14797;SDS011;7490;63.708;20.368;2024-02-14T03:24:44;2.22;;;2.03;;
14797;SDS011;7490;63.708;20.368;2024-02-14T03:27:11;3.97;;;2.72;;
14797;SDS011;7490;63.708;20.368;2024-02-14T03:29:37;2.97;;;2.67;;
14797;SDS011;7490;63.708;20.368;2024-02-14T03:32:04;3.05;;;2.45;;
14797;SDS011;7490;63.708;20.368;2024-02-14T03:34:31;3.33;;;2.53;;
14797;SDS011;7490;63.708;20.368;2024-02-14T03:37:01;2.70;;;2.20;;
14797;SDS011;7490;63.708;20.368;2024-02-14T03:39:28;2.38;;;2.17;;
14797;SDS011;7490;63.708;20.368;2024-02-14T03:41:54;2.10;;;1.77;;
14797;SDS011;7490;63.708;20.368;2024-02-14T03:44:21;3.13;;;2.50;;
14797;SDS011;7490;63.708;20.368;2024-02-14T03:46:47;3.13;;;2.35;;
14797;SDS011;7490;63.708;20.368;2024-02-14T03:49:13;2.63;;;2.38;;
14797;SDS011;7490;63.708;20.368;2024-02-14T03:51:39;3.27;;;2.00;;
14797;SDS011;7490;63.708;20.368;2024-02-14T03:54:05;2.50;;;2.08;;
14797;SDS011;7490;63.708;20.368;2024-02-14T03:56:31;3.83;;;2.70;;
14797;SDS011;7490;63.708;20.368;2024-02-14T03:58:58;2.47;;;2.28;;
14797;SDS011;7490;63.708;20.368;2024-02-14T04:01:24;2.42;;;2.15;;
14797;SDS011;7490;63.708;20.368;2024-02-14T04:03:50;3.00;;;2.70;;
14797;SDS011;7490;63.708;20.368;2024-02-14T04:06:16;7.50;;;2.00;;
14797;SDS011;7490;63.708;20.368;2024-02-14T04:08:42;3.00;;;2.40;;
14797;SDS011;7490;63.708;20.368;2024-02-14T04:11:08;2.67;;;2.47;;
14797;SDS011;7490;63.708;20.368;2024-02-14T04:13:34;3.25;;;2.50;;
14797;SDS011;7490;63.708;20.368;2024-02-14T04:16:00;2.63;;;2.30;;
14797;SDS011;7490;63.708;20.368;2024-02-14T04:18:26;3.10;;;2.67;;
14797;SDS011;7490;63.708;20.368;2024-02-14T04:20:52;4.10;;;2.67;;
14797;SDS011;7490;63.708;20.368;2024-02-14T04:23:17;3.20;;;2.70;;
14797;SDS011;7490;63.708;20.368;2024-02-14T04:25:43;3.72;;;2.50;;
14797;SDS011;7490;63.708;20.368;2024-02-14T04:28:09;2.80;;;2.50;;
14797;SDS011;7490;63.708;20.368;2024-02-14T04:30:37;4.85;;;2.88;;
14797;SDS011;7490;63.708;20.368;2024-02-14T04:33:03;3.33;;;2.50;;
14797;SDS011;7490;63.708;20.368;2024-02-14T04:35:29;3.10;;;2.35;;
14797;SDS011;7490;63.708;20.368;2024-02-14T04:37:55;3.00;;;2.47;;
14797;SDS011;7490;63.708;20.368;2024-02-14T04:40:22;2.75;;;2.30;;
14797;SDS011;7490;63.708;20.368;2024-02-14T04:42:48;3.37;;;2.50;;
14797;SDS011;7490;63.708;20.368;2024-02-14T04:45:13;3.90;;;3.07;;
14797;SDS011;7490;63.708;20.368;2024-02-14T04:47:39;4.27;;;2.93;;
14797;SDS011;7490;63.708;20.368;2024-02-14T04:50:05;4.03;;;2.90;;
14797;SDS011;7490;63.708;20.368;2024-02-14T04:52:31;5.07;;;2.93;;
14797;SDS011;7490;63.708;20.368;2024-02-14T04:54:56;4.90;;;3.17;;
14797;SDS011;7490;63.708;20.368;2024-02-14T04:57:22;4.83;;;3.10;;
14797;SDS011;7490;63.708;20.368;2024-02-14T04:59:48;2.73;;;2.47;;
14797;SDS011;7490;63.708;20.368;2024-02-14T05:02:14;3.90;;;3.00;;
14797;SDS011;7490;63.708;20.368;2024-02-14T05:04:40;2.93;;;2.60;;
14797;SDS011;7490;63.708;20.368;2024-02-14T05:07:05;9.30;;;2.70;;
14797;SDS011;7490;63.708;20.368;2024-02-14T05:09:31;2.57;;;2.33;;
14797;SDS011;7490;63.708;20.368;2024-02-14T05:11:57;2.67;;;2.20;;
14797;SDS011;7490;63.708;20.368;2024-02-14T05:14:23;3.90;;;2.43;;
14797;SDS011;7490;63.708;20.368;2024-02-14T05:16:49;6.25;;;3.08;;
14797;SDS011;7490;63.708;20.368;2024-02-14T05:19:14;6.03;;;3.00;;
14797;SDS011;7490;63.708;20.368;2024-02-14T05:21:40;10.47;;;4.50;;
14797;SDS011;7490;63.708;20.368;2024-02-14T05:24:06;5.50;;;2.90;;
14797;SDS011;7490;63.708;20.368;2024-02-14T05:26:33;8.25;;;4.03;;
14797;SDS011;7490;63.708;20.368;2024-02-14T05:28:59;4.57;;;2.90;;
14797;SDS011;7490;63.708;20.368;2024-02-14T05:31:24;6.83;;;3.53;;
14797;SDS011;7490;63.708;20.368;2024-02-14T05:34:07;3.78;;;2.72;;
14797;SDS011;7490;63.708;20.368;2024-02-14T05:36:33;3.55;;;2.88;;
14797;SDS011;7490;63.708;20.368;2024-02-14T05:38:58;3.60;;;2.60;;
14797;SDS011;7490;63.708;20.368;2024-02-14T05:41:24;3.70;;;2.30;;
14797;SDS011;7490;63.708;20.368;2024-02-14T05:43:50;4.40;;;2.72;;
14797;SDS011;7490;63.708;20.368;2024-02-14T05:46:16;5.53;;;2.97;;
14797;SDS011;7490;63.708;20.368;2024-02-14T05:48:41;3.03;;;2.40;;
14797;SDS011;7490;63.708;20.368;2024-02-14T05:51:07;4.90;;;3.00;;
14797;SDS011;7490;63.708;20.368;2024-02-14T05:53:33;5.80;;;3.00;;
14797;SDS011;7490;63.708;20.368;2024-02-14T05:55:58;3.23;;;2.47;;
14797;SDS011;7490;63.708;20.368;2024-02-14T05:58:24;4.70;;;2.77;;
14797;SDS011;7490;63.708;20.368;2024-02-14T06:00:53;5.43;;;2.90;;
14797;SDS011;7490;63.708;20.368;2024-02-14T06:03:20;4.68;;;2.95;;
14797;SDS011;7490;63.708;20.368;2024-02-14T06:05:46;4.97;;;3.15;;
14797;SDS011;7490;63.708;20.368;2024-02-14T06:08:12;3.77;;;2.80;;
14797;SDS011;7490;63.708;20.368;2024-02-14T06:10:37;3.13;;;2.53;;
14797;SDS011;7490;63.708;20.368;2024-02-14T06:13:04;3.55;;;2.60;;
14797;SDS011;7490;63.708;20.368;2024-02-14T06:15:30;3.67;;;2.60;;
14797;SDS011;7490;63.708;20.368;2024-02-14T06:17:56;4.23;;;2.90;;
14797;SDS011;7490;63.708;20.368;2024-02-14T06:20:22;4.47;;;2.85;;
14797;SDS011;7490;63.708;20.368;2024-02-14T06:22:48;4.27;;;3.20;;
14797;SDS011;7490;63.708;20.368;2024-02-14T06:25:14;5.27;;;2.90;;
14797;SDS011;7490;63.708;20.368;2024-02-14T06:27:41;5.20;;;2.92;;
14797;SDS011;7490;63.708;20.368;2024-02-14T06:30:07;5.18;;;3.03;;
14797;SDS011;7490;63.708;20.368;2024-02-14T06:32:33;4.57;;;3.13;;
14797;SDS011;7490;63.708;20.368;2024-02-14T06:34:59;3.30;;;2.70;;
14797;SDS011;7490;63.708;20.368;2024-02-14T06:37:25;5.27;;;2.87;;
14797;SDS011;7490;63.708;20.368;2024-02-14T06:39:50;4.60;;;3.07;;
14797;SDS011;7490;63.708;20.368;2024-02-14T06:42:16;3.87;;;2.43;;
14797;SDS011;7490;63.708;20.368;2024-02-14T06:44:42;3.85;;;3.30;;
14797;SDS011;7490;63.708;20.368;2024-02-14T06:47:08;5.37;;;3.10;;
14797;SDS011;7490;63.708;20.368;2024-02-14T06:49:34;4.93;;;3.30;;
14797;SDS011;7490;63.708;20.368;2024-02-14T06:51:59;4.77;;;2.93;;
14797;SDS011;7490;63.708;20.368;2024-02-14T06:54:26;4.38;;;2.88;;
14797;SDS011;7490;63.708;20.368;2024-02-14T06:56:51;4.10;;;3.10;;
14797;SDS011;7490;63.708;20.368;2024-02-14T06:59:17;4.97;;;3.17;;
14797;SDS011;7490;63.708;20.368;2024-02-14T07:01:43;3.97;;;2.80;;
14797;SDS011;7490;63.708;20.368;2024-02-14T07:04:09;3.17;;;2.88;;
14797;SDS011;7490;63.708;20.368;2024-02-14T07:06:35;4.22;;;3.00;;
14797;SDS011;7490;63.708;20.368;2024-02-14T07:09:01;4.47;;;3.00;;
14797;SDS011;7490;63.708;20.368;2024-02-14T07:11:27;5.03;;;3.27;;
14797;SDS011;7490;63.708;20.368;2024-02-14T07:13:52;6.00;;;3.17;;
14797;SDS011;7490;63.708;20.368;2024-02-14T07:16:18;4.53;;;3.20;;
14797;SDS011;7490;63.708;20.368;2024-02-14T07:18:44;5.37;;;3.20;;
14797;SDS011;7490;63.708;20.368;2024-02-14T07:21:10;6.20;;;3.23;;
14797;SDS011;7490;63.708;20.368;2024-02-14T07:23:35;4.27;;;3.20;;
14797;SDS011;7490;63.708;20.368;2024-02-14T07:26:01;4.73;;;3.47;;
14797;SDS011;7490;63.708;20.368;2024-02-14T07:28:27;5.17;;;3.20;;
14797;SDS011;7490;63.708;20.368;2024-02-14T07:30:53;4.33;;;2.90;;
14797;SDS011;7490;63.708;20.368;2024-02-14T07:33:18;4.80;;;3.70;;
14797;SDS011;7490;63.708;20.368;2024-02-14T07:35:44;4.27;;;3.23;;
14797;SDS011;7490;63.708;20.368;2024-02-14T07:38:12;4.72;;;3.15;;
14797;SDS011;7490;63.708;20.368;2024-02-14T07:40:38;5.43;;;3.30;;
14797;SDS011;7490;63.708;20.368;2024-02-14T07:43:04;3.10;;;2.20;;
14797;SDS011;7490;63.708;20.368;2024-02-14T07:45:32;3.60;;;3.10;;
14797;SDS011;7490;63.708;20.368;2024-02-14T07:47:57;4.17;;;3.27;;
14797;SDS011;7490;63.708;20.368;2024-02-14T07:50:23;5.33;;;3.20;;
14797;SDS011;7490;63.708;20.368;2024-02-14T07:52:49;6.63;;;3.00;;
14797;SDS011;7490;63.708;20.368;2024-02-14T07:55:15;3.90;;;3.00;;
14797;SDS011;7490;63.708;20.368;2024-02-14T07:57:41;4.70;;;2.80;;
14797;SDS011;7490;63.708;20.368;2024-02-14T08:00:07;5.38;;;3.55;;
14797;SDS011;7490;63.708;20.368;2024-02-14T08:02:34;3.78;;;3.38;;
14797;SDS011;7490;63.708;20.368;2024-02-14T08:05:00;4.13;;;2.83;;
14797;SDS011;7490;63.708;20.368;2024-02-14T08:07:26;5.15;;;3.55;;
14797;SDS011;7490;63.708;20.368;2024-02-14T08:09:52;4.93;;;2.55;;
14797;SDS011;7490;63.708;20.368;2024-02-14T08:12:19;3.60;;;2.83;;
14797;SDS011;7490;63.708;20.368;2024-02-14T08:14:44;4.53;;;3.27;;
14797;SDS011;7490;63.708;20.368;2024-02-14T08:17:10;4.17;;;3.00;;
14797;SDS011;7490;63.708;20.368;2024-02-14T08:19:36;2.80;;;2.53;;
14797;SDS011;7490;63.708;20.368;2024-02-14T08:22:01;4.00;;;3.10;;
14797;SDS011;7490;63.708;20.368;2024-02-14T08:24:28;3.35;;;3.05;;
14797;SDS011;7490;63.708;20.368;2024-02-14T08:26:53;3.83;;;2.80;;
14797;SDS011;7490;63.708;20.368;2024-02-14T08:29:20;4.78;;;2.90;;
14797;SDS011;7490;63.708;20.368;2024-02-14T08:31:46;4.60;;;2.90;;
14797;SDS011;7490;63.708;20.368;2024-02-14T08:34:12;3.78;;;2.88;;
14797;SDS011;7490;63.708;20.368;2024-02-14T08:36:39;4.28;;;3.28;;
14797;SDS011;7490;63.708;20.368;2024-02-14T08:39:07;4.53;;;3.67;;
14797;SDS011;7490;63.708;20.368;2024-02-14T08:41:32;5.10;;;3.58;;
14797;SDS011;7490;63.708;20.368;2024-02-14T08:43:58;4.37;;;2.87;;
14797;SDS011;7490;63.708;20.368;2024-02-14T08:46:24;5.00;;;3.10;;
14797;SDS011;7490;63.708;20.368;2024-02-14T08:48:50;5.85;;;3.10;;
14797;SDS011;7490;63.708;20.368;2024-02-14T08:51:17;4.38;;;3.28;;
14797;SDS011;7490;63.708;20.368;2024-02-14T08:53:45;4.57;;;3.55;;
14797;SDS011;7490;63.708;20.368;2024-02-14T08:56:11;3.38;;;2.70;;
14797;SDS011;7490;63.708;20.368;2024-02-14T08:58:37;3.92;;;2.80;;
14797;SDS011;7490;63.708;20.368;2024-02-14T09:01:04;3.42;;;2.53;;
14797;SDS011;7490;63.708;20.368;2024-02-14T09:03:30;5.13;;;3.10;;
14797;SDS011;7490;63.708;20.368;2024-02-14T09:05:56;4.93;;;3.00;;
14797;SDS011;7490;63.708;20.368;2024-02-14T09:08:23;4.15;;;3.30;;
14797;SDS011;7490;63.708;20.368;2024-02-14T09:10:49;4.75;;;3.08;;
14797;SDS011;7490;63.708;20.368;2024-02-14T09:13:15;4.90;;;3.00;;
14797;SDS011;7490;63.708;20.368;2024-02-14T09:15:41;3.83;;;2.87;;
14797;SDS011;7490;63.708;20.368;2024-02-14T09:18:07;4.32;;;2.90;;
14797;SDS011;7490;63.708;20.368;2024-02-14T09:20:33;6.33;;;3.37;;
14797;SDS011;7490;63.708;20.368;2024-02-14T09:22:59;4.60;;;3.53;;
14797;SDS011;7490;63.708;20.368;2024-02-14T09:25:25;4.30;;;3.10;;
14797;SDS011;7490;63.708;20.368;2024-02-14T09:27:51;5.43;;;3.17;;
14797;SDS011;7490;63.708;20.368;2024-02-14T09:30:16;4.27;;;2.93;;
14797;SDS011;7490;63.708;20.368;2024-02-14T09:32:43;6.07;;;3.40;;
14797;SDS011;7490;63.708;20.368;2024-02-14T09:35:09;5.93;;;3.20;;
14797;SDS011;7490;63.708;20.368;2024-02-14T09:37:35;4.30;;;3.17;;
14797;SDS011;7490;63.708;20.368;2024-02-14T09:40:03;4.28;;;3.17;;
14797;SDS011;7490;63.708;20.368;2024-02-14T09:42:38;4.15;;;2.97;;
14797;SDS011;7490;63.708;20.368;2024-02-14T09:45:08;4.93;;;3.35;;
14797;SDS011;7490;63.708;20.368;2024-02-14T09:47:34;3.93;;;2.67;;
14797;SDS011;7490;63.708;20.368;2024-02-14T09:50:01;4.40;;;3.28;;
14797;SDS011;7490;63.708;20.368;2024-02-14T09:52:29;3.40;;;2.53;;
14797;SDS011;7490;63.708;20.368;2024-02-14T09:54:58;3.37;;;2.50;;
14797;SDS011;7490;63.708;20.368;2024-02-14T09:57:24;3.87;;;2.73;;
14797;SDS011;7490;63.708;20.368;2024-02-14T09:59:51;3.70;;;2.57;;
14797;SDS011;7490;63.708;20.368;2024-02-14T10:02:19;3.13;;;2.50;;
14797;SDS011;7490;63.708;20.368;2024-02-14T10:04:45;2.83;;;2.40;;
14797;SDS011;7490;63.708;20.368;2024-02-14T10:07:11;2.90;;;2.50;;
14797;SDS011;7490;63.708;20.368;2024-02-14T10:09:40;3.43;;;2.47;;
14797;SDS011;7490;63.708;20.368;2024-02-14T10:12:07;3.37;;;2.80;;
14797;SDS011;7490;63.708;20.368;2024-02-14T10:14:34;3.10;;;2.40;;
14797;SDS011;7490;63.708;20.368;2024-02-14T10:17:01;3.77;;;2.60;;
14797;SDS011;7490;63.708;20.368;2024-02-14T10:19:28;2.80;;;2.40;;
14797;SDS011;7490;63.708;20.368;2024-02-14T10:21:57;4.00;;;2.60;;
14797;SDS011;7490;63.708;20.368;2024-02-14T10:24:25;3.70;;;2.57;;
14797;SDS011;7490;63.708;20.368;2024-02-14T10:26:55;3.67;;;2.43;;
14797;SDS011;7490;63.708;20.368;2024-02-14T10:29:24;3.87;;;2.73;;
14797;SDS011;7490;63.708;20.368;2024-02-14T10:31:50;5.40;;;3.07;;
14797;SDS011;7490;63.708;20.368;2024-02-14T10:34:18;4.30;;;2.77;;
14797;SDS011;7490;63.708;20.368;2024-02-14T10:36:45;3.57;;;2.97;;
14797;SDS011;7490;63.708;20.368;2024-02-14T10:39:12;4.43;;;3.27;;
14797;SDS011;7490;63.708;20.368;2024-02-14T10:41:40;5.40;;;3.00;;
14797;SDS011;7490;63.708;20.368;2024-02-14T10:44:06;4.43;;;2.97;;
14797;SDS011;7490;63.708;20.368;2024-02-14T10:46:33;4.33;;;2.80;;
14797;SDS011;7490;63.708;20.368;2024-02-14T10:49:04;3.53;;;3.10;;
14797;SDS011;7490;63.708;20.368;2024-02-14T10:51:32;5.73;;;3.00;;
14797;SDS011;7490;63.708;20.368;2024-02-14T10:54:21;6.10;;;3.30;;
14797;SDS011;7490;63.708;20.368;2024-02-14T10:56:48;5.13;;;3.10;;
14797;SDS011;7490;63.708;20.368;2024-02-14T10:59:18;4.57;;;3.20;;
14797;SDS011;7490;63.708;20.368;2024-02-14T11:01:46;4.80;;;3.53;;
14797;SDS011;7490;63.708;20.368;2024-02-14T11:04:12;5.37;;;2.93;;
14797;SDS011;7490;63.708;20.368;2024-02-14T11:06:48;4.70;;;3.17;;
14797;SDS011;7490;63.708;20.368;2024-02-14T11:09:18;4.30;;;2.90;;
14797;SDS011;7490;63.708;20.368;2024-02-14T11:11:44;5.23;;;3.10;;
14797;SDS011;7490;63.708;20.368;2024-02-14T11:14:14;4.53;;;2.72;;
14797;SDS011;7490;63.708;20.368;2024-02-14T11:16:47;5.30;;;3.42;;
14797;SDS011;7490;63.708;20.368;2024-02-14T11:19:13;5.57;;;3.60;;
14797;SDS011;7490;63.708;20.368;2024-02-14T11:21:41;3.50;;;2.95;;
14797;SDS011;7490;63.708;20.368;2024-02-14T11:24:10;4.10;;;3.20;;
14797;SDS011;7490;63.708;20.368;2024-02-14T11:26:46;5.65;;;3.85;;
14797;SDS011;7490;63.708;20.368;2024-02-14T11:29:14;5.75;;;3.60;;
14797;SDS011;7490;63.708;20.368;2024-02-14T11:31:46;5.85;;;3.70;;
14797;SDS011;7490;63.708;20.368;2024-02-14T11:34:16;5.07;;;3.85;;
14797;SDS011;7490;63.708;20.368;2024-02-14T11:36:42;6.18;;;3.50;;
14797;SDS011;7490;63.708;20.368;2024-02-14T11:39:09;5.65;;;3.50;;
14797;SDS011;7490;63.708;20.368;2024-02-14T11:41:37;5.13;;;3.45;;
14797;SDS011;7490;63.708;20.368;2024-02-14T11:44:03;7.75;;;3.65;;
14797;SDS011;7490;63.708;20.368;2024-02-14T11:46:33;6.88;;;4.38;;
14797;SDS011;7490;63.708;20.368;2024-02-14T11:49:00;6.35;;;3.60;;
14797;SDS011;7490;63.708;20.368;2024-02-14T11:51:28;7.25;;;4.40;;
14797;SDS011;7490;63.708;20.368;2024-02-14T11:53:58;11.25;;;4.85;;
14797;SDS011;7490;63.708;20.368;2024-02-14T11:56:32;14.27;;;7.57;;
14797;SDS011;7490;63.708;20.368;2024-02-14T11:59:02;9.27;;;4.43;;
14797;SDS011;7490;63.708;20.368;2024-02-14T12:01:35;5.82;;;4.03;;
14797;SDS011;7490;63.708;20.368;2024-02-14T12:04:03;6.80;;;4.50;;
14797;SDS011;7490;63.708;20.368;2024-02-14T12:06:32;10.00;;;4.15;;
14797;SDS011;7490;63.708;20.368;2024-02-14T12:09:02;5.07;;;3.20;;
14797;SDS011;7490;63.708;20.368;2024-02-14T12:11:37;5.97;;;5.20;;
14797;SDS011;7490;63.708;20.368;2024-02-14T12:14:07;6.90;;;3.70;;
14797;SDS011;7490;63.708;20.368;2024-02-14T12:16:34;4.65;;;3.20;;
14797;SDS011;7490;63.708;20.368;2024-02-14T12:19:03;7.05;;;3.50;;
14797;SDS011;7490;63.708;20.368;2024-02-14T12:21:37;6.25;;;3.83;;
14797;SDS011;7490;63.708;20.368;2024-02-14T12:24:07;5.00;;;3.80;;
14797;SDS011;7490;63.708;20.368;2024-02-14T12:26:35;4.90;;;3.50;;
14797;SDS011;7490;63.708;20.368;2024-02-14T12:29:02;6.55;;;4.15;;
14797;SDS011;7490;63.708;20.368;2024-02-14T12:31:29;5.53;;;4.13;;
14797;SDS011;7490;63.708;20.368;2024-02-14T12:33:58;4.65;;;3.60;;
14797;SDS011;7490;63.708;20.368;2024-02-14T12:36:28;6.65;;;3.75;;
14797;SDS011;7490;63.708;20.368;2024-02-14T12:38:54;6.47;;;3.50;;
14797;SDS011;7490;63.708;20.368;2024-02-14T12:41:20;11.18;;;3.70;;
14797;SDS011;7490;63.708;20.368;2024-02-14T12:43:51;6.05;;;3.83;;
14797;SDS011;7490;63.708;20.368;2024-02-14T12:46:18;5.53;;;3.65;;
14797;SDS011;7490;63.708;20.368;2024-02-14T12:48:44;5.97;;;3.33;;
14797;SDS011;7490;63.708;20.368;2024-02-14T12:51:10;5.50;;;3.87;;
14797;SDS011;7490;63.708;20.368;2024-02-14T12:53:36;5.87;;;3.83;;
14797;SDS011;7490;63.708;20.368;2024-02-14T12:56:02;6.43;;;4.17;;
14797;SDS011;7490;63.708;20.368;2024-02-14T12:58:29;5.32;;;3.80;;
14797;SDS011;7490;63.708;20.368;2024-02-14T13:00:56;5.03;;;3.67;;
14797;SDS011;7490;63.708;20.368;2024-02-14T13:03:23;5.25;;;3.55;;
14797;SDS011;7490;63.708;20.368;2024-02-14T13:05:49;6.07;;;3.80;;
14797;SDS011;7490;63.708;20.368;2024-02-14T13:08:18;5.95;;;3.92;;
14797;SDS011;7490;63.708;20.368;2024-02-14T13:10:44;6.97;;;4.63;;
14797;SDS011;7490;63.708;20.368;2024-02-14T13:13:09;6.67;;;4.00;;
14797;SDS011;7490;63.708;20.368;2024-02-14T13:15:35;7.27;;;4.17;;
14797;SDS011;7490;63.708;20.368;2024-02-14T13:18:01;6.18;;;4.03;;
14797;SDS011;7490;63.708;20.368;2024-02-14T13:20:28;8.38;;;4.20;;
14797;SDS011;7490;63.708;20.368;2024-02-14T13:22:54;6.80;;;4.00;;
14797;SDS011;7490;63.708;20.368;2024-02-14T13:25:20;5.05;;;3.88;;
14797;SDS011;7490;63.708;20.368;2024-02-14T13:27:46;5.90;;;4.22;;
14797;SDS011;7490;63.708;20.368;2024-02-14T13:30:12;6.87;;;4.20;;
14797;SDS011;7490;63.708;20.368;2024-02-14T13:32:38;7.13;;;4.22;;
14797;SDS011;7490;63.708;20.368;2024-02-14T13:35:04;6.83;;;3.97;;
14797;SDS011;7490;63.708;20.368;2024-02-14T13:37:31;9.27;;;4.57;;
14797;SDS011;7490;63.708;20.368;2024-02-14T13:39:57;8.02;;;4.80;;
14797;SDS011;7490;63.708;20.368;2024-02-14T13:42:23;12.07;;;8.40;;
14797;SDS011;7490;63.708;20.368;2024-02-14T13:44:48;12.97;;;7.63;;
14797;SDS011;7490;63.708;20.368;2024-02-14T13:47:17;19.13;;;12.27;;
14797;SDS011;7490;63.708;20.368;2024-02-14T13:49:46;8.80;;;6.13;;
14797;SDS011;7490;63.708;20.368;2024-02-14T13:52:12;10.82;;;6.00;;
14797;SDS011;7490;63.708;20.368;2024-02-14T13:54:40;7.05;;;4.57;;
14797;SDS011;7490;63.708;20.368;2024-02-14T13:57:06;13.10;;;4.85;;
14797;SDS011;7490;63.708;20.368;2024-02-14T13:59:32;10.47;;;5.10;;
14797;SDS011;7490;63.708;20.368;2024-02-14T14:01:57;6.37;;;4.57;;
14797;SDS011;7490;63.708;20.368;2024-02-14T14:04:23;7.00;;;4.70;;
14797;SDS011;7490;63.708;20.368;2024-02-14T14:06:50;8.38;;;4.60;;
14797;SDS011;7490;63.708;20.368;2024-02-14T14:09:16;6.63;;;3.83;;
14797;SDS011;7490;63.708;20.368;2024-02-14T14:11:42;6.30;;;4.23;;
14797;SDS011;7490;63.708;20.368;2024-02-14T14:14:07;8.30;;;5.37;;
14797;SDS011;7490;63.708;20.368;2024-02-14T14:16:33;7.40;;;4.72;;
14797;SDS011;7490;63.708;20.368;2024-02-14T14:19:00;6.38;;;4.55;;
14797;SDS011;7490;63.708;20.368;2024-02-14T14:21:26;9.05;;;4.85;;
14797;SDS011;7490;63.708;20.368;2024-02-14T14:23:52;10.77;;;5.20;;
14797;SDS011;7490;63.708;20.368;2024-02-14T14:26:18;8.25;;;4.88;;
14797;SDS011;7490;63.708;20.368;2024-02-14T14:28:44;9.05;;;4.55;;
14797;SDS011;7490;63.708;20.368;2024-02-14T14:31:11;7.00;;;4.90;;
14797;SDS011;7490;63.708;20.368;2024-02-14T14:33:37;9.13;;;4.57;;
14797;SDS011;7490;63.708;20.368;2024-02-14T14:36:05;7.93;;;4.70;;
14797;SDS011;7490;63.708;20.368;2024-02-14T14:38:31;8.40;;;5.33;;
14797;SDS011;7490;63.708;20.368;2024-02-14T14:40:57;7.97;;;4.90;;
14797;SDS011;7490;63.708;20.368;2024-02-14T14:43:24;8.68;;;4.88;;
14797;SDS011;7490;63.708;20.368;2024-02-14T14:45:50;5.65;;;4.53;;